Main page
METAR-TAF:

METAR-TAF

Airports :

Hamid Karzai International Airport

Kabul, Afghanistan

latitude: 34-38N, longitude: 069-12E, elevation: 1789 m

Current weather observation

The report was made 32 minutes ago, at 23:50 UTC
Wind 7 kt from the Northwest
Temperature 1°C
Humidity 55%
Pressure 1025 hPa
Visibility 10 km or more
no clouds below 1500 m and no cumulonimbus

METAR: OAKB 172350Z 31007KT CAVOK 01/M07 Q1025 RMK A3028 BLU BLU

Time: 04:52 (00:22 UTC)

Forecast

The report was made 1 hour and 17 minutes ago, at 23:05 UTC
Forecast valid from 18 at 00 UTC to 18 at 24 UTC
Wind 2 kt from variable directions
Visibility 10 km or more
no clouds below 1500 m and no cumulonimbus
Becoming
from 18 at 08 UTC to 18 at 09 UTC
Few clouds at a height of 10000 ft
Becoming
from 18 at 09 UTC to 18 at 10 UTC
Wind 12 kt from the West/Southwest
Becoming
from 18 at 16 UTC to 18 at 17 UTC
Wind 12 kt from the Northwest

TAF: OAKB 172305Z 1800/1824 VRB02KT CAVOK BECMG 1808/1809 FEW100 BECMG 1809/1810 24012KT BECMG 1816/1817 32012KT

Weather observations and forecasts of more than 4000 airports (METAR and TAF reports).

The available stations are represented by yellow and red dots on the map.

Hover mouse over dot to see the name of the station.

Then click to see weather observations and forecasts.

To change the map : click on the green buttons with a black cross to zoom in, on the green button with a dash to zoom out, or on the green arrows for adjacent maps.


METAR-TAF: